Time;durP1;ratioP1;P1;durP2;ratioP2;P2;SDS_P1;SDS_P2;PMS_P1;PMS_P2;Temp;Humidity;BMP_temperature;BMP_pressure;BME280_temperature;BME280_humidity;BME280_pressure;Samples;Min_cycle;Max_cycle;Signal;HPM_P1;HPM_P2
2023/06/29 00:02:32;;;;;;;4.22;2.38;;;21.00;98.60;;;21.36;91.34;101035.06;5222860;28;20655;-46
2023/06/29 00:05:05;;;;;;;4.15;2.28;;;21.00;98.60;;;21.34;91.19;101037.72;5225134;28;20045;-47
2023/06/29 00:07:38;;;;;;;3.63;2.05;;;20.90;98.50;;;21.34;90.95;101042.16;5224704;28;20056;-46
2023/06/29 00:10:13;;;;;;;3.10;2.13;;;21.00;98.50;;;21.32;90.98;101038.63;5225167;28;20098;-47
2023/06/29 00:12:45;;;;;;;3.70;2.38;;;21.00;98.50;;;21.33;91.18;101035.97;5224895;28;20049;-46
2023/06/29 00:15:18;;;;;;;3.92;2.40;;;21.00;98.60;;;21.34;91.34;101032.44;5225781;28;20045;-45
2023/06/29 00:17:51;;;;;;;3.75;2.10;;;20.90;98.60;;;21.36;91.82;101041.25;5224417;28;20052;-46
2023/06/29 00:20:28;;;;;;;3.50;2.28;;;21.00;98.80;;;21.40;92.13;101043.00;5224337;28;20103;-46
2023/06/29 00:23:00;;;;;;;3.67;2.33;;;20.90;98.90;;;21.42;92.19;101034.16;5224491;28;20421;-46
2023/06/29 00:25:35;;;;;;;3.30;1.95;;;20.90;99.30;;;21.43;92.56;101038.56;5224531;28;20510;-47
2023/06/29 00:28:07;;;;;;;3.78;2.30;;;21.00;99.20;;;21.41;92.88;101027.97;5224201;28;20052;-46
2023/06/29 00:30:39;;;;;;;3.67;2.20;;;20.90;99.30;;;21.40;93.13;101035.06;5224185;28;20227;-46
2023/06/29 00:33:12;;;;;;;3.78;2.15;;;20.90;99.40;;;21.40;93.22;101032.41;5224332;28;20511;-46
2023/06/29 00:35:44;;;;;;;3.05;2.05;;;21.00;99.50;;;21.39;93.99;101030.63;5225615;28;20045;-47
2023/06/29 00:38:16;;;;;;;4.30;2.25;;;21.00;99.70;;;21.38;94.27;101026.19;5223992;28;20560;-46
2023/06/29 00:40:50;;;;;;;3.13;2.08;;;20.90;99.80;;;21.37;94.85;101028.88;5223965;28;20425;-46
2023/06/29 00:43:24;;;;;;;3.70;2.22;;;20.90;99.90;;;21.36;95.37;101030.63;5224058;28;20056;-47
2023/06/29 00:45:57;;;;;;;4.80;2.13;;;20.90;99.90;;;21.34;94.59;101027.13;5223863;28;20044;-47
2023/06/29 00:48:30;;;;;;;3.70;2.13;;;20.80;99.90;;;21.32;94.00;101028.91;5223933;28;20045;-47
2023/06/29 00:51:04;;;;;;;5.25;2.00;;;20.90;99.90;;;21.34;94.10;101029.78;5225322;28;20049;-46
2023/06/29 00:53:37;;;;;;;4.97;2.17;;;20.90;99.90;;;21.32;94.45;101034.22;5223664;28;20398;-46
2023/06/29 00:56:11;;;;;;;2.60;1.83;;;20.90;99.90;;;21.33;94.30;101022.72;5223594;28;20056;-46
2023/06/29 00:58:48;;;;;;;3.15;1.95;;;20.90;99.90;;;21.34;93.94;101031.56;5223816;28;20041;-45
2023/06/29 01:01:20;;;;;;;3.22;1.80;;;20.90;99.90;;;21.34;93.73;101027.13;5222768;28;20076;-46
2023/06/29 01:03:53;;;;;;;5.25;2.15;;;20.90;99.90;;;21.33;93.75;101025.38;5224524;28;20045;-46
2023/06/29 01:06:29;;;;;;;3.55;2.20;;;20.80;99.90;;;21.34;93.79;101023.59;5224578;28;20041;-46
2023/06/29 01:09:04;;;;;;;4.07;2.10;;;20.90;99.90;;;21.34;94.02;101026.25;5223553;28;20037;-47
2023/06/29 01:11:39;;;;;;;3.83;2.33;;;20.90;99.90;;;21.33;93.93;101025.38;5223566;28;20048;-46
2023/06/29 01:14:15;;;;;;;3.60;2.45;;;20.90;99.90;;;21.33;93.88;101020.06;5223229;28;20045;-46
2023/06/29 01:16:49;;;;;;;3.58;2.38;;;20.90;99.90;;;21.30;93.90;101017.41;5223456;28;20053;-47
2023/06/29 01:19:28;;;;;;;4.80;2.53;;;20.90;99.90;;;21.27;94.05;101012.13;5223333;28;20037;-46
2023/06/29 01:22:04;;;;;;;2.83;2.15;;;20.90;99.90;;;21.25;94.20;101010.34;5223244;28;20044;-47
2023/06/29 01:24:41;;;;;;;4.20;2.60;;;20.80;99.90;;;21.23;94.22;101017.44;5223154;28;20053;-46
2023/06/29 01:27:15;;;;;;;5.93;2.63;;;20.80;99.90;;;21.23;94.28;101017.44;5223038;28;20047;-46
2023/06/29 01:29:47;;;;;;;4.50;2.50;;;20.80;99.90;;;21.20;94.40;101013.03;5222909;28;20140;-46
2023/06/29 01:32:20;;;;;;;5.72;3.00;;;20.80;99.90;;;21.18;94.76;101012.16;5222785;28;20410;-46
2023/06/29 01:34:52;;;;;;;5.30;2.60;;;20.80;99.90;;;21.18;94.81;101014.78;5223010;28;20413;-46
2023/06/29 01:37:29;;;;;;;5.10;2.80;;;20.80;99.90;;;21.18;94.81;101005.97;5222756;28;20045;-46
2023/06/29 01:40:08;;;;;;;4.43;2.33;;;20.80;99.90;;;21.18;95.00;101006.84;5223028;28;20053;-45
2023/06/29 01:42:42;;;;;;;3.60;2.58;;;20.80;99.90;;;21.15;95.07;101004.22;5222826;28;20049;-46
2023/06/29 01:45:17;;;;;;;5.13;2.53;;;20.70;99.90;;;21.16;95.88;101005.09;5222668;28;20148;-46
2023/06/29 01:47:51;;;;;;;4.15;2.40;;;20.70;99.90;;;21.16;96.28;101000.69;5222682;28;20203;-46
2023/06/29 01:50:25;;;;;;;4.50;2.22;;;20.70;99.90;;;21.15;96.61;100993.63;5222860;28;20071;-47
2023/06/29 01:52:57;;;;;;;4.63;2.42;;;20.70;99.90;;;21.13;97.06;100982.16;5222514;28;20075;-47
2023/06/29 01:55:31;;;;;;;4.88;2.53;;;20.70;99.90;;;21.12;97.28;100989.19;5222550;28;20135;-46
2023/06/29 01:58:03;;;;;;;3.10;2.20;;;20.70;99.90;;;21.11;97.24;100991.88;5222510;28;20052;-46
2023/06/29 02:00:36;;;;;;;5.05;2.33;;;20.70;99.90;;;21.11;97.14;100992.75;5222364;28;20059;-45
2023/06/29 02:03:09;;;;;;;4.32;2.30;;;20.70;99.90;;;21.10;97.66;101000.72;5222295;28;20064;-46
2023/06/29 02:05:41;;;;;;;3.42;2.40;;;20.70;99.90;;;21.08;97.51;100994.53;5222390;28;20045;-46
2023/06/29 02:08:14;;;;;;;3.67;2.20;;;20.60;99.90;;;21.06;97.37;100988.34;5222254;28;20693;-46
2023/06/29 02:10:47;;;;;;;4.22;2.53;;;20.60;99.90;;;21.05;97.27;100992.78;5222413;28;20056;-47
2023/06/29 02:13:20;;;;;;;4.03;2.60;;;20.60;99.90;;;21.04;97.86;100992.78;5214241;28;20399;-46
2023/06/29 02:15:52;;;;;;;3.95;2.13;;;20.60;99.90;;;21.04;98.30;100995.44;5222138;28;20067;-46
2023/06/29 02:18:26;;;;;;;5.15;2.35;;;20.60;99.90;;;21.03;98.40;100989.25;5222218;28;20037;-46
2023/06/29 02:20:59;;;;;;;3.13;2.20;;;20.60;99.90;;;21.04;98.86;100990.13;5221999;28;20055;-46
2023/06/29 02:23:31;;;;;;;4.05;2.50;;;20.60;99.90;;;21.03;98.98;100986.59;5222267;28;20064;-47
2023/06/29 02:26:05;;;;;;;4.75;3.00;;;20.60;99.90;;;20.99;98.50;100976.03;5221596;28;20386;-46
2023/06/29 02:28:42;;;;;;;5.18;2.60;;;20.50;99.90;;;20.94;98.11;100978.72;5221817;28;20041;-47
2023/06/29 02:31:14;;;;;;;6.40;2.72;;;20.50;99.90;;;20.88;97.98;100978.75;5222020;28;20049;-46
2023/06/29 02:33:48;;;;;;;3.70;2.67;;;20.50;99.90;;;20.85;98.04;100966.38;5222103;28;20076;-47
2023/06/29 02:36:22;;;;;;;5.38;2.97;;;20.50;99.90;;;20.81;98.01;100955.81;5221929;28;20049;-47
2023/06/29 02:38:57;;;;;;;6.10;2.85;;;20.40;99.90;;;20.76;98.14;100947.88;5222095;28;20053;-46
2023/06/29 02:41:31;;;;;;;4.65;2.75;;;20.40;99.90;;;20.73;98.41;100957.59;5222046;28;20153;-46
2023/06/29 02:44:04;;;;;;;4.97;3.03;;;20.40;99.90;;;20.71;98.72;100957.63;5221895;28;20044;-46
2023/06/29 02:46:37;;;;;;;4.65;2.58;;;20.40;99.90;;;20.71;99.12;100959.38;5221953;28;20056;-46
2023/06/29 02:49:09;;;;;;;4.32;2.80;;;20.30;99.90;;;20.71;99.65;100954.09;5221737;28;20068;-46
2023/06/29 02:51:42;;;;;;;4.13;2.60;;;20.30;99.90;;;20.70;99.71;100963.81;5221623;28;20102;-46
2023/06/29 02:54:17;;;;;;;3.60;2.47;;;20.30;99.90;;;20.68;99.87;100955.00;5221639;28;20107;-45
2023/06/29 02:56:51;;;;;;;4.65;2.60;;;20.30;99.90;;;20.68;99.81;100960.28;5221256;28;20060;-47
2023/06/29 02:59:23;;;;;;;3.97;2.55;;;20.30;99.90;;;20.68;100.00;100956.75;5221523;28;20073;-46
2023/06/29 03:01:55;;;;;;;3.38;2.28;;;20.30;99.90;;;20.67;100.00;100958.53;5221664;28;20055;-45
2023/06/29 03:04:28;;;;;;;4.07;2.28;;;20.30;99.90;;;20.68;100.00;100948.81;5221657;28;20049;-46
2023/06/29 03:07:05;;;;;;;3.70;2.47;;;20.30;99.90;;;20.65;100.00;100952.34;5221661;28;20052;-47
2023/06/29 03:09:38;;;;;;;5.03;2.70;;;20.30;99.90;;;20.59;100.00;100955.00;5221685;28;20127;-47
2023/06/29 03:12:12;;;;;;;3.95;2.60;;;20.20;99.90;;;20.51;100.00;100955.03;5221493;28;20045;-46
2023/06/29 03:14:47;;;;;;;3.85;2.60;;;20.20;99.90;;;20.52;100.00;100958.56;5221425;28;20053;-46
2023/06/29 03:17:20;;;;;;;4.72;2.70;;;20.20;99.90;;;20.54;100.00;100941.81;5221451;28;20044;-47
2023/06/29 03:19:52;;;;;;;5.15;2.50;;;20.20;99.90;;;20.55;100.00;100943.56;5221549;28;20092;-46
2023/06/29 03:22:26;;;;;;;4.95;2.70;;;20.20;99.90;;;20.57;100.00;100943.53;5222678;28;20409;-47
2023/06/29 03:24:58;;;;;;;4.50;2.53;;;20.20;99.90;;;20.58;100.00;100940.00;5221383;28;20048;-46
2023/06/29 03:27:32;;;;;;;4.47;2.45;;;20.20;99.90;;;20.58;100.00;100940.00;5221299;28;20052;-47
2023/06/29 03:30:06;;;;;;;4.40;2.45;;;20.20;99.90;;;20.58;100.00;100950.59;5220802;28;20114;-46
2023/06/29 03:32:39;;;;;;;4.05;2.25;;;20.20;99.90;;;20.58;100.00;100940.00;5221488;28;20056;-46
2023/06/29 03:35:11;;;;;;;3.30;2.08;;;20.20;99.90;;;20.59;100.00;100949.72;5221272;28;20053;-47
2023/06/29 03:37:44;;;;;;;6.97;2.22;;;20.20;99.90;;;20.59;100.00;100949.72;5223715;28;20052;-46
2023/06/29 03:40:16;;;;;;;4.45;2.80;;;20.20;99.90;;;20.59;100.00;100949.72;5225153;28;20418;-47
2023/06/29 03:42:50;;;;;;;3.90;2.47;;;20.20;99.90;;;20.59;100.00;100939.13;5225026;28;20585;-45
2023/06/29 03:45:23;;;;;;;4.88;2.35;;;20.20;99.90;;;20.58;100.00;100942.66;5224912;28;20052;-46
2023/06/29 03:47:55;;;;;;;3.50;2.15;;;20.10;99.90;;;20.59;100.00;100936.47;5225113;28;20053;-45
2023/06/29 03:50:27;;;;;;;4.70;2.38;;;20.20;99.90;;;20.60;100.00;100940.88;5224888;28;20049;-46
2023/06/29 03:53:03;;;;;;;6.15;2.80;;;20.20;99.90;;;20.58;100.00;100927.66;5225243;28;20047;-46
2023/06/29 03:55:35;;;;;;;4.75;2.50;;;20.20;99.90;;;20.59;100.00;100936.47;5224820;28;20052;-46
2023/06/29 03:58:09;;;;;;;4.50;2.63;;;20.20;99.90;;;20.60;100.00;100924.97;5224859;28;20053;-45
2023/06/29 04:00:42;;;;;;;5.10;2.63;;;20.20;99.90;;;20.59;100.00;100937.34;5224929;28;20048;-46
2023/06/29 04:03:14;;;;;;;3.60;2.38;;;20.20;99.90;;;20.61;100.00;100933.84;5224481;28;20049;-46
2023/06/29 04:05:47;;;;;;;4.47;2.60;;;20.20;99.90;;;20.61;100.00;100939.13;5224937;28;20490;-46
2023/06/29 04:08:19;;;;;;;4.72;2.47;;;20.20;99.90;;;20.59;100.00;100928.53;5224798;28;20053;-46
2023/06/29 04:10:51;;;;;;;3.20;2.10;;;20.20;99.90;;;20.58;100.00;100942.66;5224550;28;20048;-46
2023/06/29 04:13:25;;;;;;;4.50;3.03;;;20.20;99.90;;;20.60;100.00;100935.56;5224659;28;20324;-45
2023/06/29 04:15:58;;;;;;;4.07;2.33;;;20.20;99.90;;;20.58;100.00;100929.41;5224563;28;20056;-45
2023/06/29 04:18:30;;;;;;;3.55;2.38;;;20.20;99.90;;;20.59;100.00;100932.06;5224465;28;20076;-46
2023/06/29 04:21:03;;;;;;;4.90;2.78;;;20.20;99.90;;;20.59;100.00;100931.16;5224320;28;20452;-47
2023/06/29 04:23:35;;;;;;;4.82;2.50;;;20.20;99.90;;;20.57;100.00;100927.66;5224417;28;20041;-46
2023/06/29 04:26:09;;;;;;;5.63;3.10;;;20.20;99.90;;;20.53;100.00;100923.25;5224288;28;20056;-46
2023/06/29 04:28:44;;;;;;;4.65;2.67;;;20.20;99.90;;;20.49;100.00;100924.16;5224361;28;20140;-46
2023/06/29 04:31:17;;;;;;;5.13;2.83;;;20.20;99.90;;;20.44;100.00;100920.63;5224308;28;20595;-45
2023/06/29 04:33:49;;;;;;;3.15;2.42;;;20.10;99.90;;;20.44;100.00;100912.69;5224494;28;20063;-46
2023/06/29 04:36:21;;;;;;;4.88;2.70;;;20.10;99.90;;;20.43;100.00;100909.16;5224222;28;20048;-46
2023/06/29 04:38:57;;;;;;;4.85;2.90;;;20.10;99.90;;;20.44;100.00;100910.03;5224571;28;20053;-47
2023/06/29 04:41:32;;;;;;;4.63;2.53;;;20.10;99.90;;;20.47;100.00;100896.78;5223821;28;20056;-47
2023/06/29 04:44:08;;;;;;;4.30;2.88;;;20.10;99.90;;;20.48;100.00;100903.88;5224076;28;20049;-46
2023/06/29 04:46:41;;;;;;;4.13;2.80;;;20.10;99.90;;;20.47;100.00;100891.50;5223855;28;20436;-48
2023/06/29 04:49:16;;;;;;;4.32;3.03;;;20.20;99.90;;;20.48;100.00;100901.22;5223676;28;20468;-47
2023/06/29 04:51:48;;;;;;;3.42;2.33;;;20.20;99.90;;;20.51;100.00;100899.44;5223851;28;20445;-47
2023/06/29 04:54:21;;;;;;;3.63;2.40;;;20.20;99.90;;;20.55;100.00;100900.31;5223652;28;20053;-47
2023/06/29 04:56:53;;;;;;;7.88;2.90;;;20.20;99.90;;;20.53;100.00;100894.13;5223775;28;20045;-46
2023/06/29 04:59:29;;;;;;;7.10;2.80;;;20.20;99.90;;;20.55;100.00;100895.00;5224095;28;20044;-46
2023/06/29 05:02:01;;;;;;;5.35;3.08;;;20.20;99.90;;;20.56;100.00;100895.00;5223990;28;20053;-46
2023/06/29 05:04:34;;;;;;;4.47;2.90;;;20.20;99.90;;;20.57;100.00;100898.53;5225229;28;20045;-46
2023/06/29 05:07:06;;;;;;;4.63;2.70;;;20.20;99.90;;;20.55;100.00;100892.38;5223797;28;20053;-46
2023/06/29 05:09:39;;;;;;;4.90;2.42;;;20.20;99.90;;;20.57;100.00;100901.19;5223713;28;20049;-48
2023/06/29 05:12:11;;;;;;;6.07;3.33;;;20.20;99.90;;;20.59;100.00;100894.97;5223280;28;20418;-46
2023/06/29 05:14:45;;;;;;;4.05;2.22;;;20.30;99.90;;;20.66;100.00;100898.47;5223138;28;20048;-46
2023/06/29 05:17:18;;;;;;;4.50;2.40;;;20.30;99.90;;;20.74;100.00;100904.63;5223139;28;20073;-46
2023/06/29 05:19:50;;;;;;;4.07;2.20;;;20.40;99.90;;;20.81;100.00;100906.34;5223056;28;20087;-46
2023/06/29 05:22:23;;;;;;;4.50;2.50;;;20.40;99.90;;;20.87;100.00;100897.50;5222991;28;20045;-47
2023/06/29 05:24:58;;;;;;;4.72;2.38;;;20.40;99.90;;;20.94;100.00;100906.28;5223236;28;20135;-46
2023/06/29 05:27:30;;;;;;;4.43;2.53;;;20.50;99.90;;;21.02;100.00;100904.47;5223126;28;20059;-47
2023/06/29 05:30:06;;;;;;;4.38;2.60;;;20.50;99.90;;;21.09;100.00;100904.41;5222973;28;20041;-46
2023/06/29 05:32:39;;;;;;;3.85;2.13;;;20.60;99.90;;;21.14;100.00;100901.75;5223357;28;20521;-46
2023/06/29 05:35:11;;;;;;;3.70;2.45;;;20.70;99.90;;;21.22;100.00;100897.25;5222465;28;20049;-47
2023/06/29 05:37:44;;;;;;;4.55;2.85;;;20.70;99.90;;;21.28;100.00;100897.25;5221666;28;20433;-46
2023/06/29 05:40:16;;;;;;;3.72;2.45;;;20.80;99.90;;;21.33;100.00;100892.81;5221755;28;20045;-47
2023/06/29 05:42:49;;;;;;;4.53;2.35;;;20.80;99.90;;;21.43;100.00;100896.25;5222018;28;20544;-46
2023/06/29 05:45:23;;;;;;;4.50;2.72;;;20.90;99.90;;;21.52;100.00;100897.97;5221632;28;20045;-47
2023/06/29 05:47:55;;;;;;;4.07;2.20;;;21.00;99.90;;;21.58;99.51;100903.19;5221480;28;20118;-47
2023/06/29 05:50:28;;;;;;;4.57;2.75;;;21.10;99.90;;;21.61;99.13;100900.53;5221495;28;20134;-47
2023/06/29 05:53:00;;;;;;;3.97;2.67;;;21.10;99.90;;;21.64;98.86;100898.69;5221832;28;20140;-47
2023/06/29 05:55:33;;;;;;;5.75;2.67;;;21.20;99.90;;;21.65;98.41;100895.19;5221513;28;20057;-47
2023/06/29 05:58:05;;;;;;;4.38;2.78;;;21.20;99.90;;;21.66;98.28;100901.38;5221433;28;20056;-47
2023/06/29 06:00:39;;;;;;;4.60;2.42;;;21.20;99.90;;;21.71;97.94;100904.84;5221062;28;20045;-46
2023/06/29 06:03:11;;;;;;;4.10;2.40;;;21.20;99.90;;;21.80;97.75;100903.88;5221579;28;20044;-48
2023/06/29 06:05:44;;;;;;;4.95;2.78;;;21.30;99.90;;;21.86;97.20;100899.41;5221610;28;20056;-47
2023/06/29 06:08:16;;;;;;;4.43;2.60;;;21.40;99.90;;;21.88;96.71;100897.59;5220344;28;20510;-47
2023/06/29 06:10:48;;;;;;;5.55;2.75;;;21.40;99.90;;;21.91;96.61;100900.25;5221325;28;20041;-47
2023/06/29 06:13:21;;;;;;;3.78;2.20;;;21.40;99.90;;;21.93;96.62;100903.75;5221000;28;20106;-47
2023/06/29 06:15:55;;;;;;;3.35;2.15;;;21.40;99.90;;;21.93;96.50;100901.09;5221291;28;20609;-47
2023/06/29 06:18:27;;;;;;;4.53;2.67;;;21.50;99.90;;;21.95;96.15;100904.59;5220537;28;20048;-47
2023/06/29 06:21:00;;;;;;;3.80;2.13;;;21.50;99.90;;;21.94;96.15;100900.19;5221162;28;20059;-47
2023/06/29 06:23:32;;;;;;;4.15;2.25;;;21.50;99.90;;;21.97;96.25;100896.63;5222090;28;20568;-47
2023/06/29 06:26:04;;;;;;;4.53;2.33;;;21.50;99.90;;;21.95;96.04;100893.09;5221063;28;20053;-47
2023/06/29 06:28:37;;;;;;;4.47;2.53;;;21.50;99.90;;;21.91;96.41;100889.63;5220456;28;20056;-46
2023/06/29 06:31:14;;;;;;;4.50;2.28;;;21.50;99.90;;;21.91;96.64;100892.28;5220371;28;20049;-46
2023/06/29 06:33:46;;;;;;;3.28;1.92;;;21.50;99.90;;;21.93;96.78;100890.47;5221323;28;20056;-46
2023/06/29 06:36:20;;;;;;;4.60;2.20;;;21.50;99.90;;;21.97;96.23;100890.44;5221013;28;20088;-46
2023/06/29 06:38:52;;;;;;;4.07;2.30;;;21.50;99.90;;;22.06;94.03;100890.34;5220845;28;20520;-47
2023/06/29 06:41:27;;;;;;;5.10;2.38;;;21.60;99.90;;;22.13;93.34;100894.72;5221125;28;20049;-46
2023/06/29 06:44:00;;;;;;;3.40;1.90;;;21.60;99.90;;;22.23;93.27;100895.50;5221434;28;20049;-46
2023/06/29 06:46:34;;;;;;;4.45;2.50;;;21.70;99.90;;;22.27;92.76;100889.25;5220980;28;20041;-47
2023/06/29 06:49:06;;;;;;;4.15;2.17;;;21.80;99.90;;;22.29;92.20;100888.34;5221314;28;20056;-46
2023/06/29 06:51:39;;;;;;;4.13;2.70;;;21.80;99.90;;;22.37;92.67;100891.81;5221281;28;20048;-47
2023/06/29 06:54:11;;;;;;;3.95;1.92;;;21.90;99.90;;;22.48;92.98;100894.31;5220903;28;20530;-47
2023/06/29 06:56:43;;;;;;;4.63;2.45;;;22.00;99.90;;;22.57;92.69;100893.31;5220926;28;20045;-46
2023/06/29 06:59:20;;;;;;;4.18;2.40;;;22.10;99.90;;;22.61;91.94;100895.03;5220956;28;20056;-46
2023/06/29 07:01:53;;;;;;;4.03;2.38;;;22.10;99.90;;;22.70;91.84;100895.81;5221308;28;20057;-47
2023/06/29 07:04:26;;;;;;;3.97;2.40;;;22.20;99.90;;;22.79;91.08;100893.91;5220553;28;20041;-46
2023/06/29 07:06:58;;;;;;;3.75;2.33;;;22.20;99.90;;;22.84;89.92;100894.72;5221161;28;20060;-51
2023/06/29 07:09:33;;;;;;;4.53;2.40;;;22.30;99.90;;;22.85;89.35;100893.81;5222069;28;20041;-46
2023/06/29 07:12:07;;;;;;;4.43;2.30;;;22.30;99.80;;;22.85;89.46;100892.03;5223790;28;20417;-46
2023/06/29 07:14:39;;;;;;;5.38;2.67;;;22.40;99.80;;;22.95;89.84;100887.50;5224241;28;20414;-47
2023/06/29 07:17:17;;;;;;;5.07;2.20;;;22.40;99.90;;;23.08;89.48;100890.84;5223834;28;20132;-47
2023/06/29 07:19:50;;;;;;;5.22;2.25;;;22.50;99.80;;;23.19;89.12;100888.91;5224768;28;20040;-46
2023/06/29 07:22:22;;;;;;;4.60;2.25;;;22.60;99.70;;;23.22;88.83;100883.56;5224552;28;20049;-47
2023/06/29 07:24:56;;;;;;;4.80;2.22;;;22.60;99.60;;;23.20;89.27;100878.25;5225118;28;20513;-47
2023/06/29 07:27:28;;;;;;;5.70;2.22;;;22.60;99.60;;;23.21;89.12;100879.13;5224311;28;20055;-47
2023/06/29 07:30:01;;;;;;;5.10;2.42;;;22.70;99.50;;;23.16;89.30;100881.88;5224067;28;20406;-46
2023/06/29 07:32:35;;;;;;;5.63;2.10;;;22.60;99.50;;;23.14;90.35;100885.44;5224430;28;20053;-47
2023/06/29 07:35:08;;;;;;;4.10;2.08;;;22.60;99.80;;;23.14;91.76;100881.00;5216607;28;20064;-46
2023/06/29 07:37:40;;;;;;;4.03;1.65;;;22.60;99.90;;;23.15;91.88;100887.22;5223257;28;20053;-46
2023/06/29 07:40:13;;;;;;;9.65;2.40;;;22.60;99.90;;;23.17;92.18;100882.75;5223559;28;20052;-47
2023/06/29 07:42:45;;;;;;;3.92;2.03;;;22.70;99.90;;;23.24;92.34;100881.75;5223797;28;20053;-47
2023/06/29 07:45:18;;;;;;;5.30;2.17;;;22.70;99.90;;;23.30;91.78;100884.31;5224176;28;20532;-47
2023/06/29 07:47:51;;;;;;;4.50;2.45;;;22.70;99.90;;;23.37;91.10;100877.09;5223920;28;20421;-47
2023/06/29 07:50:24;;;;;;;4.90;2.22;;;22.80;99.90;;;23.43;90.53;100877.00;5223459;28;20056;-47
2023/06/29 07:52:56;;;;;;;4.50;2.10;;;22.80;99.90;;;23.44;89.61;100871.66;5225051;28;20506;-46
2023/06/29 07:55:28;;;;;;;3.42;2.00;;;22.90;99.70;;;23.44;89.17;100869.00;5224320;28;20045;-47
2023/06/29 07:58:01;;;;;;;4.55;2.13;;;22.90;99.50;;;23.42;89.21;100881.44;5219601;28;20049;-47
2023/06/29 08:00:33;;;;;;;3.88;2.20;;;22.90;99.40;;;23.37;89.48;100871.78;5237267;28;20044;-47
2023/06/29 08:03:07;;;;;;;3.45;2.10;;;22.90;99.40;;;23.38;89.42;100877.06;5224418;28;20546;-48
2023/06/29 08:05:39;;;;;;;4.22;2.25;;;22.90;99.50;;;23.38;89.12;100874.41;5223968;28;20215;-47
2023/06/29 08:08:12;;;;;;;3.67;2.00;;;22.80;99.30;;;23.37;89.21;100871.78;5224121;28;20049;-46
2023/06/29 08:10:44;;;;;;;3.65;1.92;;;22.90;99.30;;;23.39;89.27;100870.84;5225118;28;20044;-47
2023/06/29 08:13:20;;;;;;;3.72;1.95;;;22.90;99.30;;;23.41;89.17;100873.47;5223751;28;20060;-46
2023/06/29 08:15:52;;;;;;;5.68;2.28;;;22.90;99.30;;;23.38;88.71;100862.91;5216792;28;20049;-48
2023/06/29 08:18:26;;;;;;;3.03;2.10;;;22.90;99.20;;;23.38;88.72;100868.22;5223753;28;20053;-47
2023/06/29 08:20:58;;;;;;;4.00;2.03;;;22.90;99.10;;;23.37;89.05;100875.31;5223914;28;20064;-47
2023/06/29 08:23:33;;;;;;;5.40;2.20;;;22.90;99.20;;;23.37;88.54;100877.09;5222744;28;20156;-47
2023/06/29 08:26:05;;;;;;;3.40;1.88;;;22.90;99.10;;;23.39;88.49;100876.16;5223802;28;20049;-47
2023/06/29 08:28:38;;;;;;;2.97;1.75;;;22.90;99.10;;;23.42;88.29;100872.59;5223458;28;20049;-48
2023/06/29 08:31:12;;;;;;;2.80;1.85;;;22.90;99.00;;;23.46;87.69;100874.28;5223459;28;20506;-47
2023/06/29 08:33:49;;;;;;;2.53;1.60;;;22.90;98.90;;;23.46;87.57;100877.81;5223437;28;20048;-47
2023/06/29 08:36:22;;;;;;;2.58;1.65;;;22.90;98.80;;;23.50;87.17;100874.22;5223109;28;20045;-47
2023/06/29 08:38:54;;;;;;;3.33;1.70;;;22.90;98.70;;;23.53;87.24;100874.16;5223338;28;20049;-47
2023/06/29 08:41:30;;;;;;;3.00;1.80;;;23.00;98.70;;;23.55;86.38;100874.16;5223336;28;20045;-48
2023/06/29 08:44:04;;;;;;;2.72;1.63;;;23.00;98.50;;;23.61;85.99;100870.50;5223651;28;20047;-47
2023/06/29 08:46:38;;;;;;;2.72;1.80;;;23.00;98.30;;;23.64;85.59;100867.81;5222867;28;20044;-48
2023/06/29 08:49:13;;;;;;;3.05;1.27;;;23.10;98.20;;;23.72;84.82;100868.53;5223154;28;20052;-48
2023/06/29 08:51:52;;;;;;;2.58;1.70;;;23.10;98.00;;;23.85;84.48;100858.53;5222822;28;20044;-47
2023/06/29 08:54:26;;;;;;;2.90;1.60;;;23.20;97.90;;;23.99;83.27;100857.38;5222925;28;20041;-47
2023/06/29 08:57:01;;;;;;;2.17;1.60;;;23.30;97.60;;;24.07;82.19;100860.78;5223001;28;20053;-47
2023/06/29 08:59:39;;;;;;;2.42;1.50;;;23.40;97.20;;;24.09;81.38;100858.94;5224172;28;20047;-47
2023/06/29 09:02:12;;;;;;;3.33;1.90;;;23.40;96.90;;;24.09;81.28;100869.59;5223029;28;20721;-47
2023/06/29 09:04:45;;;;;;;2.78;1.63;;;23.40;96.80;;;24.12;81.40;100857.13;5222741;28;20148;-47
2023/06/29 09:07:18;;;;;;;4.70;2.00;;;23.50;96.70;;;24.06;80.49;100859.03;5222611;28;20045;-47
2023/06/29 09:09:50;;;;;;;3.25;1.77;;;23.50;96.40;;;24.01;81.26;100852.03;5222984;28;20044;-47
2023/06/29 09:12:23;;;;;;;3.55;1.75;;;23.40;96.50;;;24.02;81.22;100857.31;5222650;28;20410;-47
2023/06/29 09:14:57;;;;;;;2.83;1.80;;;23.40;96.50;;;24.06;81.47;100851.03;5223066;28;20398;-47
2023/06/29 09:17:33;;;;;;;2.55;1.70;;;23.50;96.50;;;24.14;80.72;100850.00;5222550;28;20076;-48
2023/06/29 09:20:15;;;;;;;1.80;1.45;;;23.50;96.40;;;24.22;80.21;100848.06;5222686;28;20048;-47
2023/06/29 09:22:51;;;;;;;2.60;1.50;;;23.60;96.20;;;24.34;80.21;100842.50;5222344;28;20048;-47
2023/06/29 09:25:27;;;;;;;3.88;1.73;;;23.70;96.20;;;24.69;79.88;100844.41;5222237;28;20505;-47
2023/06/29 09:28:04;;;;;;;4.35;1.70;;;23.80;96.20;;;25.06;77.54;100852.44;5222432;28;20094;-47
2023/06/29 09:30:39;;;;;;;3.67;1.75;;;24.10;95.70;;;25.27;75.91;100847.50;5222054;28;20048;-48
2023/06/29 09:33:13;;;;;;;2.88;1.38;;;24.30;95.00;;;25.42;74.77;100844.44;5222363;28;20048;-46
2023/06/29 09:35:49;;;;;;;3.67;1.52;;;24.50;94.60;;;25.53;74.08;100839.72;5222140;28;20060;-47
2023/06/29 09:38:21;;;;;;;2.67;1.65;;;24.60;94.00;;;25.61;72.90;100837.72;5222107;28;20049;-48
2023/06/29 09:40:55;;;;;;;2.30;1.50;;;24.70;93.60;;;25.69;72.48;100835.72;5222067;28;20048;-47
2023/06/29 09:43:28;;;;;;;2.75;1.50;;;24.90;93.30;;;25.83;72.61;100827.38;5221978;28;20528;-47
2023/06/29 09:46:08;;;;;;;2.75;2.08;;;25.00;93.30;;;25.97;71.71;100824.31;5222346;28;20390;-48
2023/06/29 09:48:49;;;;;;;3.45;1.55;;;25.10;92.80;;;26.18;70.84;100829.03;5221536;28;20129;-48
2023/06/29 09:51:24;;;;;;;3.25;1.98;;;25.30;92.60;;;26.53;70.03;100824.44;5222010;28;20364;-47
2023/06/29 09:53:56;;;;;;;3.47;1.63;;;25.50;92.30;;;26.76;69.91;100824.63;5221963;28;20528;-48
2023/06/29 09:56:29;;;;;;;2.25;1.42;;;25.70;92.40;;;26.77;69.91;100826.38;5221474;28;20045;-48
2023/06/29 09:59:03;;;;;;;5.07;1.63;;;25.80;92.00;;;26.59;68.94;100826.94;5221827;28;20041;-49
2023/06/29 10:01:35;;;;;;;3.83;1.77;;;25.80;91.60;;;26.40;70.80;100823.06;5221221;28;20053;-47
2023/06/29 10:04:08;;;;;;;3.20;1.90;;;25.70;91.80;;;26.22;71.38;100820.03;5221832;28;20047;-48
2023/06/29 10:06:46;;;;;;;2.10;1.60;;;25.50;91.90;;;26.11;72.29;100813.22;5221641;28;20541;-47
2023/06/29 10:09:19;;;;;;;3.28;1.90;;;25.40;92.20;;;25.97;72.43;100810.97;5221768;28;20076;-48
2023/06/29 10:11:54;;;;;;;4.30;1.88;;;25.30;92.10;;;25.93;73.50;100817.28;5221342;28;20137;-48
2023/06/29 10:14:27;;;;;;;4.00;1.70;;;25.20;92.50;;;25.86;73.79;100816.59;5221493;28;20037;-47
2023/06/29 10:17:01;;;;;;;2.53;1.40;;;25.20;92.70;;;25.85;73.70;100821.97;5221485;28;20059;-47
2023/06/29 10:19:39;;;;;;;3.38;1.60;;;25.20;92.70;;;25.81;73.93;100807.81;5220953;28;20057;-47
2023/06/29 10:22:16;;;;;;;3.30;1.63;;;25.10;92.70;;;25.78;73.88;100817.72;5221372;28;20044;-47
2023/06/29 10:24:53;;;;;;;2.58;1.50;;;25.10;92.70;;;25.71;73.40;100817.88;5221118;28;20052;-47
2023/06/29 10:27:29;;;;;;;3.45;2.00;;;25.10;92.50;;;25.68;74.13;100809.94;5221345;28;20410;-48
2023/06/29 10:30:05;;;;;;;3.53;2.08;;;25.00;92.60;;;25.66;73.99;100809.09;5221392;28;20405;-47
2023/06/29 10:32:39;;;;;;;4.13;1.70;;;25.00;92.70;;;25.66;73.74;100811.78;5203857;28;20052;-47
2023/06/29 10:35:13;;;;;;;;;;;25.00;92.50;;;25.68;73.47;100809.94;5221927;28;20056;-47
2023/06/29 10:37:49;;;;;;;2.65;1.77;;;25.00;92.50;;;25.83;72.48;100810.47;5220688;28;19935;-48